createdAt,value
2019-03-20T00:14:12.070Z,2.90
2019-03-20T00:16:43.518Z,2.90
2019-03-20T00:19:16.932Z,2.30
2019-03-20T00:21:49.594Z,2.70
2019-03-20T00:24:23.139Z,2.70
2019-03-20T00:26:55.432Z,2.70
2019-03-20T00:29:31.694Z,2.70
2019-03-20T00:32:04.496Z,2.60
2019-03-20T00:43:24.074Z,2.50
2019-03-20T00:45:55.637Z,2.50
2019-03-20T00:48:27.040Z,2.60
2019-03-20T00:50:58.547Z,2.40
2019-03-20T00:58:32.118Z,2.30
2019-03-20T01:01:03.676Z,2.40
2019-03-20T01:03:35.229Z,2.30
2019-03-20T01:06:07.122Z,2.70
2019-03-20T01:11:10.910Z,2.40
2019-03-20T01:16:15.756Z,2.20
2019-03-20T01:18:56.349Z,2.20
2019-03-20T01:21:29.492Z,2.10
2019-03-20T01:24:01.692Z,2.10
2019-03-20T01:26:33.742Z,2.10
2019-03-20T01:29:05.231Z,2.00
2019-03-20T01:31:36.721Z,2.00
2019-03-20T01:34:08.065Z,2.00
2019-03-20T01:36:39.422Z,2.00
2019-03-20T01:39:10.843Z,1.90
2019-03-20T01:41:42.704Z,1.90
2019-03-20T01:44:14.278Z,1.90
2019-03-20T01:46:45.689Z,1.80
2019-03-20T01:49:17.134Z,1.80
2019-03-20T01:51:48.465Z,1.70
2019-03-20T01:54:20.044Z,1.70
2019-03-20T01:56:55.361Z,1.60
2019-03-20T01:59:26.742Z,1.60
2019-03-20T02:01:58.405Z,1.50
2019-03-20T02:04:31.659Z,1.50
2019-03-20T02:07:04.193Z,1.50
2019-03-20T02:09:37.240Z,1.40
2019-03-20T02:12:09.491Z,1.40
2019-03-20T02:14:43.608Z,1.30
2019-03-20T02:17:23.571Z,1.30
2019-03-20T02:19:56.840Z,1.20
2019-03-20T02:22:28.197Z,1.10
2019-03-20T02:24:59.767Z,0.80
2019-03-20T02:27:32.156Z,1.20
2019-03-20T02:33:06.647Z,1.00
2019-03-20T02:35:50.754Z,1.20
2019-03-20T02:38:12.387Z,1.10
2019-03-20T02:48:16.674Z,1.30
2019-03-20T02:50:48.036Z,1.10
2019-03-20T02:53:20.561Z,1.20
2019-03-20T02:58:22.636Z,1.10
2019-03-20T03:06:06.497Z,0.80
2019-03-20T03:08:28.877Z,1.10
2019-03-20T03:11:00.879Z,1.00
2019-03-20T03:13:34.922Z,0.90
2019-03-20T03:16:06.212Z,0.80
2019-03-20T03:18:38.983Z,0.80
2019-03-20T03:21:13.340Z,0.80
2019-03-20T03:23:48.464Z,0.80
2019-03-20T03:26:20.066Z,0.80
2019-03-20T03:28:56.389Z,0.90
2019-03-20T03:31:28.155Z,0.80
2019-03-20T03:34:05.054Z,0.80
2019-03-20T03:36:37.671Z,0.80
2019-03-20T03:39:09.580Z,0.80
2019-03-20T03:41:44.830Z,0.80
2019-03-20T03:44:16.208Z,0.80
2019-03-20T03:46:47.695Z,0.70
2019-03-20T03:49:19.392Z,0.80
2019-03-20T03:51:50.919Z,0.70
2019-03-20T03:54:22.652Z,0.70
2019-03-20T03:56:54.051Z,0.70
2019-03-20T03:59:25.543Z,0.70
2019-03-20T04:01:56.857Z,0.60
2019-03-20T04:04:28.514Z,0.60
2019-03-20T04:07:01.720Z,0.50
2019-03-20T04:09:34.221Z,0.50
2019-03-20T04:12:06.153Z,0.50
2019-03-20T04:14:37.551Z,0.40
2019-03-20T04:17:25.862Z,0.40
2019-03-20T04:19:57.130Z,0.40
2019-03-20T04:22:28.540Z,0.30
2019-03-20T04:24:59.911Z,0.30
2019-03-20T04:27:31.859Z,-0.10
2019-03-20T04:30:03.443Z,0.50
2019-03-20T04:32:35.440Z,0.20
2019-03-20T04:35:07.245Z,0.10
2019-03-20T04:37:40.738Z,0.10
2019-03-20T04:40:12.178Z,0.10
2019-03-20T04:42:44.986Z,0.10
2019-03-20T04:45:18.347Z,0.00
2019-03-20T04:47:53.100Z,0.00
2019-03-20T04:50:30.329Z,0.00
2019-03-20T04:53:06.963Z,0.00
2019-03-20T04:55:39.286Z,0.00
2019-03-20T04:58:10.775Z,0.10
2019-03-20T05:03:12.688Z,-0.50
2019-03-20T05:05:44.222Z,0.10
2019-03-20T05:08:15.746Z,0.10
2019-03-20T05:10:47.160Z,0.10
2019-03-20T05:13:18.743Z,0.20
2019-03-20T05:15:50.622Z,0.80
2019-03-20T05:18:22.509Z,0.50
2019-03-20T05:20:53.764Z,0.70
2019-03-20T05:36:00.385Z,0.90
2019-03-20T05:38:32.153Z,1.70
2019-03-20T05:41:05.477Z,1.80
2019-03-20T05:43:37.307Z,2.00
2019-03-20T05:48:41.962Z,2.70
2019-03-20T05:56:15.086Z,3.40
2019-03-20T05:58:46.468Z,4.00
2019-03-20T06:03:48.882Z,4.50
2019-03-20T06:06:20.361Z,4.80
2019-03-20T06:08:52.213Z,4.90
2019-03-20T06:11:23.583Z,5.10
2019-03-20T06:13:55.214Z,5.40
2019-03-20T06:16:26.624Z,5.70
2019-03-20T06:19:00.746Z,6.20
2019-03-20T06:21:33.618Z,6.10
2019-03-20T06:24:07.309Z,6.40
2019-03-20T06:26:41.331Z,6.60
2019-03-20T06:51:14.600Z,9.10
2019-03-20T06:53:47.565Z,9.50
2019-03-20T06:56:19.154Z,9.50
2019-03-20T06:59:09.162Z,9.80
2019-03-20T07:01:40.432Z,9.90
2019-03-20T07:10:34.255Z,10.40
2019-03-20T07:13:05.743Z,10.60
2019-03-20T07:15:37.624Z,10.90
2019-03-20T07:18:09.045Z,11.10
2019-03-20T07:20:40.571Z,11.30
2019-03-20T07:23:12.048Z,11.50
2019-03-20T07:28:14.779Z,11.80
2019-03-20T07:30:46.219Z,11.90
2019-03-20T07:33:26.129Z,12.90
2019-03-20T07:35:57.872Z,12.30
2019-03-20T07:38:29.426Z,12.50
2019-03-20T07:41:00.806Z,12.80
2019-03-20T07:43:32.743Z,12.90
2019-03-20T07:46:06.313Z,13.20
2019-03-20T07:48:37.738Z,13.50
2019-03-20T07:51:09.375Z,13.70
2019-03-20T07:53:40.869Z,13.90
2019-03-20T07:56:12.308Z,14.10
2019-03-20T07:58:44.150Z,14.10
2019-03-20T08:01:15.999Z,14.20
2019-03-20T08:03:47.464Z,14.30
2019-03-20T08:06:20.015Z,14.50
2019-03-20T08:08:51.561Z,14.60
2019-03-20T08:11:23.338Z,14.70
2019-03-20T08:13:55.915Z,14.80
2019-03-20T08:16:33.034Z,14.90
2019-03-20T08:19:05.699Z,15.00
2019-03-20T08:21:37.523Z,15.10
2019-03-20T08:24:09.123Z,15.20
2019-03-20T08:26:40.524Z,15.20
2019-03-20T08:29:19.472Z,15.30
2019-03-20T08:31:50.986Z,15.30
2019-03-20T08:34:22.407Z,15.30
2019-03-20T08:36:55.034Z,15.20
2019-03-20T08:39:26.422Z,15.00
2019-03-20T08:41:57.883Z,14.90
2019-03-20T08:44:34.813Z,14.80
2019-03-20T09:04:10.020Z,14.90
2019-03-20T09:06:41.874Z,14.80
2019-03-20T09:12:31.479Z,14.90
2019-03-20T09:15:04.365Z,15.00
2019-03-20T09:17:36.617Z,15.00
2019-03-20T09:20:08.984Z,14.90
2019-03-20T09:22:40.977Z,14.80
2019-03-20T09:25:16.288Z,14.70
2019-03-20T09:27:47.565Z,14.60
2019-03-20T09:30:20.348Z,14.50
2019-03-20T09:32:52.131Z,14.50
2019-03-20T09:35:23.559Z,14.50
2019-03-20T09:37:55.051Z,14.60
2019-03-20T09:40:26.745Z,14.60
2019-03-20T09:42:59.293Z,14.60
2019-03-20T09:45:31.046Z,14.70
2019-03-20T09:48:02.522Z,14.70
2019-03-20T09:50:34.493Z,14.80
2019-03-20T09:53:06.221Z,14.80
2019-03-20T09:55:37.767Z,14.80
2019-03-20T09:58:11.721Z,14.80
2019-03-20T10:00:42.637Z,14.90
2019-03-20T10:03:14.173Z,14.80
2019-03-20T10:05:46.109Z,14.70
2019-03-20T10:08:17.801Z,14.70
2019-03-20T10:10:49.299Z,14.60
2019-03-20T10:13:21.000Z,14.70
2019-03-20T10:15:52.349Z,14.70
2019-03-20T10:18:24.007Z,14.70
2019-03-20T10:20:55.670Z,14.70
2019-03-20T10:23:26.953Z,14.60
2019-03-20T10:25:58.600Z,14.50
2019-03-20T10:28:30.355Z,14.50
2019-03-20T10:31:02.017Z,14.50
2019-03-20T10:33:34.385Z,14.50
2019-03-20T10:36:07.125Z,14.40
2019-03-20T10:38:38.713Z,14.30
2019-03-20T10:41:10.199Z,14.10
2019-03-20T10:43:42.087Z,14.00
2019-03-20T10:46:13.642Z,13.90
2019-03-20T10:48:45.262Z,13.80
2019-03-20T10:51:16.765Z,13.60
2019-03-20T10:53:48.449Z,13.60
2019-03-20T10:56:19.894Z,13.70
2019-03-20T10:58:51.757Z,13.70
2019-03-20T11:01:23.100Z,13.70
2019-03-20T11:03:54.539Z,13.70
2019-03-20T11:06:26.119Z,13.70
2019-03-20T11:08:58.700Z,13.60
2019-03-20T11:11:30.201Z,13.70
2019-03-20T11:14:01.646Z,13.70
2019-03-20T11:16:33.402Z,13.70
2019-03-20T11:19:05.113Z,13.70
2019-03-20T11:21:36.632Z,13.70
2019-03-20T11:24:08.012Z,13.70
2019-03-20T11:26:39.656Z,13.60
2019-03-20T11:29:11.206Z,13.50
2019-03-20T11:31:42.888Z,13.50
2019-03-20T11:34:14.348Z,13.40
2019-03-20T11:36:45.957Z,13.30
2019-03-20T11:39:28.971Z,13.20
2019-03-20T11:41:50.525Z,13.10
2019-03-20T11:47:28.010Z,13.00
2019-03-20T11:49:59.341Z,13.00
2019-03-20T11:52:31.086Z,12.90
2019-03-20T11:55:02.504Z,12.90
2019-03-20T11:57:35.221Z,12.80
2019-03-20T12:00:07.844Z,12.80
2019-03-20T12:02:40.188Z,12.70
2019-03-20T12:05:11.974Z,12.70
2019-03-20T12:07:43.283Z,12.60
2019-03-20T12:10:20.944Z,12.50
2019-03-20T12:12:52.361Z,12.50
2019-03-20T12:15:23.783Z,12.50
2019-03-20T12:17:55.298Z,12.40
2019-03-20T12:20:27.612Z,12.40
2019-03-20T13:32:40.778Z,11.20
2019-03-20T13:35:14.363Z,11.20
2019-03-20T13:37:46.812Z,11.10
2019-03-20T13:40:18.341Z,11.10
2019-03-20T13:42:49.915Z,11.10
2019-03-20T13:45:21.496Z,11.10
2019-03-20T13:47:53.049Z,11.10
2019-03-20T13:50:24.473Z,11.10
2019-03-20T13:52:57.631Z,11.20
2019-03-20T13:55:29.013Z,11.30
2019-03-20T13:58:00.417Z,11.30
2019-03-20T14:00:31.820Z,11.40
2019-03-20T14:03:03.416Z,11.50
2019-03-20T14:05:34.836Z,11.60
2019-03-20T14:08:06.396Z,11.60
2019-03-20T14:10:49.314Z,11.70
2019-03-20T14:13:11.785Z,11.80
2019-03-20T14:15:43.295Z,11.80
2019-03-20T14:18:14.795Z,11.90
2019-03-20T14:20:46.228Z,12.00
2019-03-20T14:23:17.958Z,12.00
2019-03-20T14:25:50.543Z,12.10
2019-03-20T14:28:21.989Z,12.10
2019-03-20T14:30:53.484Z,12.10
2019-03-20T14:33:27.719Z,12.20
2019-03-20T14:35:59.002Z,12.20
2019-03-20T14:38:30.569Z,12.30
2019-03-20T14:41:01.954Z,12.30
2019-03-20T14:43:33.918Z,12.30
2019-03-20T14:46:05.216Z,12.30
2019-03-20T14:48:38.038Z,12.40
2019-03-20T14:51:09.391Z,12.40
2019-03-20T14:53:42.287Z,12.40
2019-03-20T14:56:13.690Z,12.30
2019-03-20T14:58:51.234Z,12.30
2019-03-20T15:01:24.388Z,12.30
2019-03-20T15:03:56.133Z,12.20
2019-03-20T15:06:27.358Z,12.20
2019-03-20T15:09:04.198Z,12.10
2019-03-20T15:11:37.693Z,12.10
2019-03-20T15:14:14.547Z,12.10
2019-03-20T15:16:47.558Z,12.00
2019-03-20T15:19:19.034Z,12.00
2019-03-20T15:21:51.125Z,11.90
2019-03-20T15:24:23.119Z,11.90
2019-03-20T15:26:54.927Z,11.90
2019-03-20T15:29:30.146Z,11.80
2019-03-20T15:32:01.747Z,11.80
2019-03-20T15:34:34.897Z,11.70
2019-03-20T15:37:13.236Z,11.70
2019-03-20T15:39:44.936Z,11.70
2019-03-20T15:42:18.518Z,11.60
2019-03-20T15:44:50.836Z,11.60
2019-03-20T15:47:24.005Z,11.50
2019-03-20T15:50:26.755Z,11.40
2019-03-20T15:53:02.624Z,11.40
2019-03-20T15:55:37.422Z,11.40
2019-03-20T15:58:14.177Z,11.30
2019-03-20T16:11:49.968Z,11.10
2019-03-20T16:14:28.370Z,11.10
2019-03-20T16:17:00.479Z,11.10
2019-03-20T16:19:33.102Z,11.00
2019-03-20T16:22:04.416Z,11.00
2019-03-20T16:24:35.823Z,10.90
2019-03-20T16:27:07.255Z,10.90
2019-03-20T16:29:38.600Z,10.90
2019-03-20T16:32:10.725Z,10.80
2019-03-20T16:34:43.875Z,10.80
2019-03-20T16:37:15.325Z,10.70
2019-03-20T16:39:46.800Z,10.70
2019-03-20T16:42:18.250Z,10.60
2019-03-20T16:44:49.693Z,10.60
2019-03-20T16:47:21.067Z,10.60
2019-03-20T16:49:52.336Z,10.50
2019-03-20T16:52:23.921Z,10.50
2019-03-20T16:54:55.388Z,10.50
2019-03-20T16:57:27.012Z,10.40
2019-03-20T17:00:00.157Z,10.40
2019-03-20T17:02:34.549Z,10.40
2019-03-20T17:05:06.667Z,10.30
2019-03-20T17:07:37.945Z,9.40
2019-03-20T17:10:13.016Z,10.30
2019-03-20T17:12:45.045Z,10.20
2019-03-20T17:15:18.914Z,10.20
2019-03-20T17:17:50.357Z,10.10
2019-03-20T17:20:21.747Z,10.10
2019-03-20T17:22:54.661Z,10.10
2019-03-20T17:25:26.110Z,10.00
2019-03-20T17:27:58.286Z,10.00
2019-03-20T17:30:32.192Z,10.00
2019-03-20T17:33:04.093Z,9.90
2019-03-20T17:35:37.536Z,9.90
2019-03-20T17:38:09.836Z,9.60
2019-03-20T17:40:44.247Z,9.90
2019-03-20T17:43:17.779Z,9.80
2019-03-20T17:45:52.651Z,9.80
2019-03-20T17:48:24.803Z,9.80
2019-03-20T17:50:56.246Z,9.80
2019-03-20T17:53:30.524Z,9.80
2019-03-20T17:56:02.851Z,9.70
2019-03-20T17:58:36.537Z,9.70
2019-03-20T18:01:11.097Z,9.70
2019-03-20T18:03:46.190Z,9.70
2019-03-20T18:06:18.941Z,9.70
2019-03-20T18:08:50.998Z,9.70
2019-03-20T18:11:22.458Z,9.60
2019-03-20T18:13:54.431Z,9.60
2019-03-20T18:16:30.302Z,9.60
2019-03-20T18:19:01.980Z,9.60
2019-03-20T18:21:35.105Z,9.60
2019-03-20T18:24:07.269Z,9.60
2019-03-20T18:26:38.938Z,9.60
2019-03-20T18:29:10.756Z,9.60
2019-03-20T18:31:46.240Z,9.50
2019-03-20T18:34:15.692Z,9.50
2019-03-20T18:36:47.011Z,9.50
2019-03-20T18:39:20.586Z,9.50
2019-03-20T18:41:57.728Z,9.50
2019-03-20T18:44:28.431Z,9.50
2019-03-20T18:47:03.725Z,9.50
2019-03-20T18:49:35.894Z,9.50
2019-03-20T18:52:07.924Z,9.50
2019-03-20T18:54:39.578Z,9.50
2019-03-20T18:57:11.632Z,9.20
2019-03-20T18:59:43.693Z,9.50
2019-03-20T19:02:15.414Z,9.50
2019-03-20T19:04:48.278Z,9.50
2019-03-20T19:07:20.062Z,9.50
2019-03-20T19:09:51.834Z,9.50
2019-03-20T19:12:23.619Z,9.50
2019-03-20T19:14:56.003Z,9.50
2019-03-20T19:17:28.679Z,9.50
2019-03-20T19:20:02.179Z,9.50
2019-03-20T19:22:35.559Z,9.50
2019-03-20T19:25:08.510Z,9.50
2019-03-20T19:27:39.872Z,9.50
2019-03-20T19:30:16.069Z,9.50
2019-03-20T19:32:47.469Z,9.50
2019-03-20T19:35:19.804Z,9.50
2019-03-20T19:37:52.340Z,9.50
2019-03-20T19:40:24.143Z,9.50
2019-03-20T19:42:55.461Z,9.50
2019-03-20T19:45:26.943Z,9.50
2019-03-20T19:47:58.409Z,9.40
2019-03-20T19:50:30.539Z,9.50
2019-03-20T19:53:03.434Z,9.50
2019-03-20T19:55:34.916Z,9.50
2019-03-20T19:58:10.004Z,9.50
2019-03-20T20:00:42.247Z,9.50
2019-03-20T20:03:16.155Z,9.50
2019-03-20T20:05:47.794Z,9.50
2019-03-20T20:08:19.456Z,9.50
2019-03-20T20:10:52.984Z,9.50
2019-03-20T20:13:25.105Z,9.50
2019-03-20T20:15:58.516Z,9.50
2019-03-20T20:18:30.323Z,9.50
2019-03-20T20:21:03.341Z,9.50
2019-03-20T20:23:37.130Z,9.50
2019-03-20T20:26:10.031Z,9.40
2019-03-20T20:28:45.005Z,9.40
2019-03-20T20:31:16.274Z,9.50
2019-03-20T20:33:47.949Z,9.50
2019-03-20T20:36:19.527Z,9.40
2019-03-20T20:38:52.596Z,9.50
2019-03-20T20:41:24.834Z,9.50
2019-03-20T20:43:56.507Z,9.50
2019-03-20T20:46:28.092Z,9.60
2019-03-20T20:49:00.514Z,9.70
2019-03-20T20:51:32.145Z,9.80
2019-03-20T20:54:03.599Z,10.00
2019-03-20T20:56:35.390Z,10.20
2019-03-20T20:59:07.452Z,10.30
2019-03-20T21:01:39.573Z,10.50
2019-03-20T21:04:11.804Z,10.60
2019-03-20T21:06:43.109Z,10.70
2019-03-20T21:09:14.747Z,10.90
2019-03-20T21:11:47.406Z,11.00
2019-03-20T21:14:20.152Z,11.00
2019-03-20T21:16:55.367Z,11.10
2019-03-20T21:19:37.996Z,11.10
2019-03-20T21:22:47.056Z,11.30
2019-03-20T21:25:21.053Z,11.30
2019-03-20T21:28:58.629Z,11.40
2019-03-20T21:31:56.718Z,11.40
2019-03-20T21:35:34.017Z,11.70
2019-03-20T21:38:08.842Z,11.50
2019-03-20T21:41:05.446Z,11.50
